sensor_id;sensor_type;location;lat;lon;timestamp;P1;durP1;ratioP1;P2;durP2;ratioP2
31760;SDS011;18335;51.486;7.562;2024-03-06T00:00:01;47.90;;;27.73;;
31760;SDS011;18335;51.486;7.562;2024-03-06T00:02:30;35.47;;;20.90;;
31760;SDS011;18335;51.486;7.562;2024-03-06T00:04:58;36.35;;;20.80;;
31760;SDS011;18335;51.486;7.562;2024-03-06T00:07:25;37.05;;;21.70;;
31760;SDS011;18335;51.486;7.562;2024-03-06T00:09:52;40.20;;;23.15;;
31760;SDS011;18335;51.486;7.562;2024-03-06T00:12:19;35.20;;;20.50;;
31760;SDS011;18335;51.486;7.562;2024-03-06T00:14:47;34.97;;;22.00;;
31760;SDS011;18335;51.486;7.562;2024-03-06T00:17:14;35.42;;;22.30;;
31760;SDS011;18335;51.486;7.562;2024-03-06T00:19:42;33.65;;;20.98;;
31760;SDS011;18335;51.486;7.562;2024-03-06T00:22:10;32.83;;;19.92;;
31760;SDS011;18335;51.486;7.562;2024-03-06T00:24:38;37.55;;;21.80;;
31760;SDS011;18335;51.486;7.562;2024-03-06T00:27:05;33.80;;;21.00;;
31760;SDS011;18335;51.486;7.562;2024-03-06T00:29:32;38.08;;;22.02;;
31760;SDS011;18335;51.486;7.562;2024-03-06T00:32:01;34.97;;;20.42;;
31760;SDS011;18335;51.486;7.562;2024-03-06T00:34:29;37.95;;;21.45;;
31760;SDS011;18335;51.486;7.562;2024-03-06T00:36:56;37.33;;;21.77;;
31760;SDS011;18335;51.486;7.562;2024-03-06T00:39:24;33.15;;;19.92;;
31760;SDS011;18335;51.486;7.562;2024-03-06T00:41:51;36.42;;;19.70;;
31760;SDS011;18335;51.486;7.562;2024-03-06T00:44:18;33.13;;;19.83;;
31760;SDS011;18335;51.486;7.562;2024-03-06T00:46:45;32.33;;;19.90;;
31760;SDS011;18335;51.486;7.562;2024-03-06T00:49:11;35.38;;;22.13;;
31760;SDS011;18335;51.486;7.562;2024-03-06T00:51:38;36.78;;;21.52;;
31760;SDS011;18335;51.486;7.562;2024-03-06T00:54:05;32.38;;;20.02;;
31760;SDS011;18335;51.486;7.562;2024-03-06T00:56:33;38.45;;;20.77;;
31760;SDS011;18335;51.486;7.562;2024-03-06T00:59:03;37.70;;;20.05;;
31760;SDS011;18335;51.486;7.562;2024-03-06T01:01:30;34.28;;;20.73;;
31760;SDS011;18335;51.486;7.562;2024-03-06T01:03:57;34.42;;;19.92;;
31760;SDS011;18335;51.486;7.562;2024-03-06T01:06:24;36.17;;;19.88;;
31760;SDS011;18335;51.486;7.562;2024-03-06T01:08:51;34.65;;;20.13;;
31760;SDS011;18335;51.486;7.562;2024-03-06T01:11:18;32.85;;;19.02;;
31760;SDS011;18335;51.486;7.562;2024-03-06T01:13:46;34.72;;;19.67;;
31760;SDS011;18335;51.486;7.562;2024-03-06T01:16:13;36.58;;;21.77;;
31760;SDS011;18335;51.486;7.562;2024-03-06T01:18:40;33.95;;;20.63;;
31760;SDS011;18335;51.486;7.562;2024-03-06T01:21:06;36.05;;;21.10;;
31760;SDS011;18335;51.486;7.562;2024-03-06T01:23:33;34.60;;;17.85;;
31760;SDS011;18335;51.486;7.562;2024-03-06T01:26:00;32.78;;;18.30;;
31760;SDS011;18335;51.486;7.562;2024-03-06T01:28:26;33.47;;;20.02;;
31760;SDS011;18335;51.486;7.562;2024-03-06T01:30:55;34.88;;;19.73;;
31760;SDS011;18335;51.486;7.562;2024-03-06T01:33:23;35.05;;;20.50;;
31760;SDS011;18335;51.486;7.562;2024-03-06T01:35:50;36.15;;;19.25;;
31760;SDS011;18335;51.486;7.562;2024-03-06T01:38:16;36.67;;;20.02;;
31760;SDS011;18335;51.486;7.562;2024-03-06T01:40:43;34.42;;;19.92;;
31760;SDS011;18335;51.486;7.562;2024-03-06T01:43:19;32.53;;;18.88;;
31760;SDS011;18335;51.486;7.562;2024-03-06T01:45:47;38.70;;;20.00;;
31760;SDS011;18335;51.486;7.562;2024-03-06T01:48:16;37.80;;;21.23;;
31760;SDS011;18335;51.486;7.562;2024-03-06T01:50:42;37.38;;;20.45;;
31760;SDS011;18335;51.486;7.562;2024-03-06T01:53:10;36.40;;;19.85;;
31760;SDS011;18335;51.486;7.562;2024-03-06T01:55:37;36.22;;;19.75;;
31760;SDS011;18335;51.486;7.562;2024-03-06T01:58:04;34.70;;;19.67;;
31760;SDS011;18335;51.486;7.562;2024-03-06T02:00:31;34.17;;;19.45;;
31760;SDS011;18335;51.486;7.562;2024-03-06T02:02:59;35.85;;;19.98;;
31760;SDS011;18335;51.486;7.562;2024-03-06T02:05:27;36.50;;;20.17;;
31760;SDS011;18335;51.486;7.562;2024-03-06T02:07:56;32.13;;;18.63;;
31760;SDS011;18335;51.486;7.562;2024-03-06T02:10:24;34.88;;;20.33;;
31760;SDS011;18335;51.486;7.562;2024-03-06T02:12:52;31.52;;;19.67;;
31760;SDS011;18335;51.486;7.562;2024-03-06T02:15:19;35.05;;;20.92;;
31760;SDS011;18335;51.486;7.562;2024-03-06T02:17:46;35.22;;;20.98;;
31760;SDS011;18335;51.486;7.562;2024-03-06T02:20:13;35.00;;;19.40;;
31760;SDS011;18335;51.486;7.562;2024-03-06T02:22:43;33.97;;;20.50;;
31760;SDS011;18335;51.486;7.562;2024-03-06T02:25:09;31.05;;;19.52;;
31760;SDS011;18335;51.486;7.562;2024-03-06T02:27:38;32.60;;;20.73;;
31760;SDS011;18335;51.486;7.562;2024-03-06T02:30:05;37.42;;;20.42;;
31760;SDS011;18335;51.486;7.562;2024-03-06T02:32:32;39.42;;;21.70;;
31760;SDS011;18335;51.486;7.562;2024-03-06T02:35:00;34.90;;;20.42;;
31760;SDS011;18335;51.486;7.562;2024-03-06T02:37:27;32.30;;;19.63;;
31760;SDS011;18335;51.486;7.562;2024-03-06T02:39:55;31.98;;;19.25;;
31760;SDS011;18335;51.486;7.562;2024-03-06T02:42:22;34.28;;;19.05;;
31760;SDS011;18335;51.486;7.562;2024-03-06T02:44:49;33.53;;;19.75;;
31760;SDS011;18335;51.486;7.562;2024-03-06T02:47:16;35.38;;;19.85;;
31760;SDS011;18335;51.486;7.562;2024-03-06T02:49:42;30.70;;;18.17;;
31760;SDS011;18335;51.486;7.562;2024-03-06T02:52:09;33.97;;;19.30;;
31760;SDS011;18335;51.486;7.562;2024-03-06T02:54:36;30.83;;;17.48;;
31760;SDS011;18335;51.486;7.562;2024-03-06T02:57:04;30.42;;;18.00;;
31760;SDS011;18335;51.486;7.562;2024-03-06T02:59:30;32.45;;;17.65;;
31760;SDS011;18335;51.486;7.562;2024-03-06T03:01:57;34.92;;;19.25;;
31760;SDS011;18335;51.486;7.562;2024-03-06T03:04:25;35.67;;;20.77;;
31760;SDS011;18335;51.486;7.562;2024-03-06T03:06:52;29.70;;;17.08;;
31760;SDS011;18335;51.486;7.562;2024-03-06T03:09:19;33.97;;;19.05;;
31760;SDS011;18335;51.486;7.562;2024-03-06T03:11:46;34.25;;;18.25;;
31760;SDS011;18335;51.486;7.562;2024-03-06T03:14:14;32.58;;;19.27;;
31760;SDS011;18335;51.486;7.562;2024-03-06T03:16:41;32.15;;;17.98;;
31760;SDS011;18335;51.486;7.562;2024-03-06T03:19:08;32.60;;;18.15;;
31760;SDS011;18335;51.486;7.562;2024-03-06T03:21:35;34.10;;;18.15;;
31760;SDS011;18335;51.486;7.562;2024-03-06T03:24:01;33.60;;;18.58;;
31760;SDS011;18335;51.486;7.562;2024-03-06T03:26:28;32.58;;;19.42;;
31760;SDS011;18335;51.486;7.562;2024-03-06T03:28:55;32.35;;;17.73;;
31760;SDS011;18335;51.486;7.562;2024-03-06T03:31:23;30.55;;;19.33;;
31760;SDS011;18335;51.486;7.562;2024-03-06T03:33:50;31.05;;;17.30;;
31760;SDS011;18335;51.486;7.562;2024-03-06T03:36:16;32.90;;;17.90;;
31760;SDS011;18335;51.486;7.562;2024-03-06T03:38:43;28.92;;;17.10;;
31760;SDS011;18335;51.486;7.562;2024-03-06T03:41:10;38.33;;;19.05;;
31760;SDS011;18335;51.486;7.562;2024-03-06T03:43:38;32.53;;;17.60;;
31760;SDS011;18335;51.486;7.562;2024-03-06T03:46:06;31.75;;;18.30;;
31760;SDS011;18335;51.486;7.562;2024-03-06T03:48:34;33.90;;;19.15;;
31760;SDS011;18335;51.486;7.562;2024-03-06T03:51:02;33.30;;;18.73;;
31760;SDS011;18335;51.486;7.562;2024-03-06T03:53:30;34.80;;;18.10;;
31760;SDS011;18335;51.486;7.562;2024-03-06T03:55:56;34.17;;;18.30;;
31760;SDS011;18335;51.486;7.562;2024-03-06T03:58:23;37.70;;;20.95;;
31760;SDS011;18335;51.486;7.562;2024-03-06T04:00:50;37.25;;;19.52;;
31760;SDS011;18335;51.486;7.562;2024-03-06T04:03:18;33.03;;;18.02;;
31760;SDS011;18335;51.486;7.562;2024-03-06T04:05:47;34.03;;;18.77;;
31760;SDS011;18335;51.486;7.562;2024-03-06T04:08:14;33.25;;;18.00;;
31760;SDS011;18335;51.486;7.562;2024-03-06T04:10:42;35.83;;;20.10;;
31760;SDS011;18335;51.486;7.562;2024-03-06T04:13:11;30.42;;;17.23;;
31760;SDS011;18335;51.486;7.562;2024-03-06T04:15:38;33.05;;;18.67;;
31760;SDS011;18335;51.486;7.562;2024-03-06T04:18:04;36.47;;;19.50;;
31760;SDS011;18335;51.486;7.562;2024-03-06T04:20:31;31.77;;;17.50;;
31760;SDS011;18335;51.486;7.562;2024-03-06T04:22:59;33.28;;;16.98;;
31760;SDS011;18335;51.486;7.562;2024-03-06T04:25:27;33.78;;;19.13;;
31760;SDS011;18335;51.486;7.562;2024-03-06T04:27:54;30.90;;;17.73;;
31760;SDS011;18335;51.486;7.562;2024-03-06T04:30:20;33.33;;;19.02;;
31760;SDS011;18335;51.486;7.562;2024-03-06T04:32:47;31.55;;;18.55;;
31760;SDS011;18335;51.486;7.562;2024-03-06T04:35:14;29.85;;;17.42;;
31760;SDS011;18335;51.486;7.562;2024-03-06T04:37:41;36.67;;;17.85;;
31760;SDS011;18335;51.486;7.562;2024-03-06T04:40:10;31.60;;;16.60;;
31760;SDS011;18335;51.486;7.562;2024-03-06T04:42:40;29.83;;;17.67;;
31760;SDS011;18335;51.486;7.562;2024-03-06T04:45:10;28.33;;;15.70;;
31760;SDS011;18335;51.486;7.562;2024-03-06T04:47:37;25.88;;;15.25;;
31760;SDS011;18335;51.486;7.562;2024-03-06T04:50:08;27.15;;;16.40;;
31760;SDS011;18335;51.486;7.562;2024-03-06T04:52:35;29.10;;;16.05;;
31760;SDS011;18335;51.486;7.562;2024-03-06T04:55:02;31.17;;;17.73;;
31760;SDS011;18335;51.486;7.562;2024-03-06T04:57:31;27.75;;;16.40;;
31760;SDS011;18335;51.486;7.562;2024-03-06T04:59:57;25.80;;;14.55;;
31760;SDS011;18335;51.486;7.562;2024-03-06T05:02:25;24.08;;;14.55;;
31760;SDS011;18335;51.486;7.562;2024-03-06T05:04:52;26.95;;;14.35;;
31760;SDS011;18335;51.486;7.562;2024-03-06T05:07:18;25.83;;;14.25;;
31760;SDS011;18335;51.486;7.562;2024-03-06T05:09:45;26.58;;;15.43;;
31760;SDS011;18335;51.486;7.562;2024-03-06T05:12:11;23.83;;;13.85;;
31760;SDS011;18335;51.486;7.562;2024-03-06T05:14:40;26.75;;;15.38;;
31760;SDS011;18335;51.486;7.562;2024-03-06T05:17:06;29.95;;;16.50;;
31760;SDS011;18335;51.486;7.562;2024-03-06T05:19:35;30.55;;;16.30;;
31760;SDS011;18335;51.486;7.562;2024-03-06T05:22:02;27.35;;;15.65;;
31760;SDS011;18335;51.486;7.562;2024-03-06T05:24:30;23.50;;;14.15;;
31760;SDS011;18335;51.486;7.562;2024-03-06T05:26:57;23.20;;;13.13;;
31760;SDS011;18335;51.486;7.562;2024-03-06T05:29:24;23.48;;;13.40;;
31760;SDS011;18335;51.486;7.562;2024-03-06T05:31:52;24.50;;;14.38;;
31760;SDS011;18335;51.486;7.562;2024-03-06T05:34:21;24.35;;;13.95;;
31760;SDS011;18335;51.486;7.562;2024-03-06T05:36:48;25.45;;;14.13;;
31760;SDS011;18335;51.486;7.562;2024-03-06T05:39:15;22.40;;;12.77;;
31760;SDS011;18335;51.486;7.562;2024-03-06T05:41:42;24.13;;;13.77;;
31760;SDS011;18335;51.486;7.562;2024-03-06T05:44:09;26.92;;;14.63;;
31760;SDS011;18335;51.486;7.562;2024-03-06T05:46:36;38.13;;;15.18;;
31760;SDS011;18335;51.486;7.562;2024-03-06T05:49:04;25.23;;;14.82;;
31760;SDS011;18335;51.486;7.562;2024-03-06T05:51:31;23.58;;;13.38;;
31760;SDS011;18335;51.486;7.562;2024-03-06T05:53:57;25.08;;;13.85;;
31760;SDS011;18335;51.486;7.562;2024-03-06T05:56:24;25.42;;;13.55;;
31760;SDS011;18335;51.486;7.562;2024-03-06T05:58:51;25.88;;;13.43;;
31760;SDS011;18335;51.486;7.562;2024-03-06T06:01:19;22.88;;;12.88;;
31760;SDS011;18335;51.486;7.562;2024-03-06T06:03:47;28.38;;;14.23;;
31760;SDS011;18335;51.486;7.562;2024-03-06T06:06:16;21.45;;;12.60;;
31760;SDS011;18335;51.486;7.562;2024-03-06T06:08:44;28.42;;;14.35;;
31760;SDS011;18335;51.486;7.562;2024-03-06T06:11:11;27.00;;;15.15;;
31760;SDS011;18335;51.486;7.562;2024-03-06T06:13:38;26.23;;;15.55;;
31760;SDS011;18335;51.486;7.562;2024-03-06T06:16:05;28.75;;;14.98;;
31760;SDS011;18335;51.486;7.562;2024-03-06T06:18:32;26.98;;;14.02;;
31760;SDS011;18335;51.486;7.562;2024-03-06T06:20:59;28.73;;;14.90;;
31760;SDS011;18335;51.486;7.562;2024-03-06T06:23:34;26.02;;;14.88;;
31760;SDS011;18335;51.486;7.562;2024-03-06T06:26:00;24.60;;;14.45;;
31760;SDS011;18335;51.486;7.562;2024-03-06T06:28:27;28.15;;;14.10;;
31760;SDS011;18335;51.486;7.562;2024-03-06T06:30:54;24.80;;;14.85;;
31760;SDS011;18335;51.486;7.562;2024-03-06T06:33:21;27.88;;;14.75;;
31760;SDS011;18335;51.486;7.562;2024-03-06T06:35:49;26.45;;;15.88;;
31760;SDS011;18335;51.486;7.562;2024-03-06T06:38:17;28.20;;;15.63;;
31760;SDS011;18335;51.486;7.562;2024-03-06T06:40:45;32.20;;;16.15;;
31760;SDS011;18335;51.486;7.562;2024-03-06T06:43:12;27.23;;;14.70;;
31760;SDS011;18335;51.486;7.562;2024-03-06T06:45:40;31.10;;;15.75;;
31760;SDS011;18335;51.486;7.562;2024-03-06T06:48:07;28.88;;;15.80;;
31760;SDS011;18335;51.486;7.562;2024-03-06T06:50:35;28.00;;;14.70;;
31760;SDS011;18335;51.486;7.562;2024-03-06T06:53:01;27.02;;;14.50;;
31760;SDS011;18335;51.486;7.562;2024-03-06T06:55:28;32.30;;;15.68;;
31760;SDS011;18335;51.486;7.562;2024-03-06T06:57:56;32.50;;;16.90;;
31760;SDS011;18335;51.486;7.562;2024-03-06T07:00:23;25.10;;;14.30;;
31760;SDS011;18335;51.486;7.562;2024-03-06T07:02:51;30.90;;;16.13;;
31760;SDS011;18335;51.486;7.562;2024-03-06T07:05:18;35.00;;;19.60;;
31760;SDS011;18335;51.486;7.562;2024-03-06T07:07:45;32.42;;;17.75;;
31760;SDS011;18335;51.486;7.562;2024-03-06T07:10:11;34.28;;;17.27;;
31760;SDS011;18335;51.486;7.562;2024-03-06T07:12:39;33.25;;;18.27;;
31760;SDS011;18335;51.486;7.562;2024-03-06T07:15:08;32.83;;;18.58;;
31760;SDS011;18335;51.486;7.562;2024-03-06T07:17:34;38.00;;;17.63;;
31760;SDS011;18335;51.486;7.562;2024-03-06T07:20:01;34.13;;;17.25;;
31760;SDS011;18335;51.486;7.562;2024-03-06T07:22:30;37.13;;;19.08;;
31760;SDS011;18335;51.486;7.562;2024-03-06T07:24:57;33.05;;;17.95;;
31760;SDS011;18335;51.486;7.562;2024-03-06T07:27:23;38.22;;;18.83;;
31760;SDS011;18335;51.486;7.562;2024-03-06T07:29:50;37.35;;;19.10;;
31760;SDS011;18335;51.486;7.562;2024-03-06T07:32:18;38.75;;;19.73;;
31760;SDS011;18335;51.486;7.562;2024-03-06T07:34:45;34.63;;;18.30;;
31760;SDS011;18335;51.486;7.562;2024-03-06T07:37:11;36.85;;;17.95;;
31760;SDS011;18335;51.486;7.562;2024-03-06T07:39:39;37.00;;;20.55;;
31760;SDS011;18335;51.486;7.562;2024-03-06T07:42:06;48.42;;;20.73;;
31760;SDS011;18335;51.486;7.562;2024-03-06T07:44:33;32.58;;;17.17;;
31760;SDS011;18335;51.486;7.562;2024-03-06T07:47:00;30.45;;;18.08;;
31760;SDS011;18335;51.486;7.562;2024-03-06T07:49:28;37.80;;;19.55;;
31760;SDS011;18335;51.486;7.562;2024-03-06T07:51:57;35.15;;;19.70;;
31760;SDS011;18335;51.486;7.562;2024-03-06T07:54:24;48.97;;;22.17;;
31760;SDS011;18335;51.486;7.562;2024-03-06T07:56:51;47.92;;;22.35;;
31760;SDS011;18335;51.486;7.562;2024-03-06T07:59:18;44.53;;;24.40;;
31760;SDS011;18335;51.486;7.562;2024-03-06T08:01:45;44.25;;;22.60;;
31760;SDS011;18335;51.486;7.562;2024-03-06T08:04:13;42.33;;;22.55;;
31760;SDS011;18335;51.486;7.562;2024-03-06T08:06:42;39.78;;;24.30;;
31760;SDS011;18335;51.486;7.562;2024-03-06T08:09:09;42.67;;;22.45;;
31760;SDS011;18335;51.486;7.562;2024-03-06T08:11:36;39.35;;;20.45;;
31760;SDS011;18335;51.486;7.562;2024-03-06T08:14:03;42.28;;;22.48;;
31760;SDS011;18335;51.486;7.562;2024-03-06T08:16:30;41.47;;;21.10;;
31760;SDS011;18335;51.486;7.562;2024-03-06T08:18:58;36.10;;;19.55;;
31760;SDS011;18335;51.486;7.562;2024-03-06T08:21:25;38.42;;;21.60;;
31760;SDS011;18335;51.486;7.562;2024-03-06T08:23:53;37.63;;;19.63;;
31760;SDS011;18335;51.486;7.562;2024-03-06T08:26:20;36.53;;;20.40;;
31760;SDS011;18335;51.486;7.562;2024-03-06T08:28:47;35.15;;;19.35;;
31760;SDS011;18335;51.486;7.562;2024-03-06T08:31:14;36.97;;;20.40;;
31760;SDS011;18335;51.486;7.562;2024-03-06T08:33:40;39.25;;;21.40;;
31760;SDS011;18335;51.486;7.562;2024-03-06T08:36:08;39.22;;;21.58;;
31760;SDS011;18335;51.486;7.562;2024-03-06T08:38:35;33.55;;;19.13;;
31760;SDS011;18335;51.486;7.562;2024-03-06T08:41:04;35.78;;;20.15;;
31760;SDS011;18335;51.486;7.562;2024-03-06T08:43:30;37.53;;;21.35;;
31760;SDS011;18335;51.486;7.562;2024-03-06T08:45:57;40.55;;;21.02;;
31760;SDS011;18335;51.486;7.562;2024-03-06T08:48:24;40.03;;;22.40;;
31760;SDS011;18335;51.486;7.562;2024-03-06T08:50:51;44.90;;;21.40;;
31760;SDS011;18335;51.486;7.562;2024-03-06T08:53:18;38.83;;;22.98;;
31760;SDS011;18335;51.486;7.562;2024-03-06T08:55:44;43.28;;;22.58;;
31760;SDS011;18335;51.486;7.562;2024-03-06T08:58:12;45.30;;;23.58;;
31760;SDS011;18335;51.486;7.562;2024-03-06T09:00:40;46.35;;;24.10;;
31760;SDS011;18335;51.486;7.562;2024-03-06T09:03:06;46.88;;;24.80;;
31760;SDS011;18335;51.486;7.562;2024-03-06T09:05:33;41.85;;;21.92;;
31760;SDS011;18335;51.486;7.562;2024-03-06T09:08:00;47.15;;;23.60;;
31760;SDS011;18335;51.486;7.562;2024-03-06T09:10:27;42.92;;;25.00;;
31760;SDS011;18335;51.486;7.562;2024-03-06T09:12:53;44.75;;;24.67;;
31760;SDS011;18335;51.486;7.562;2024-03-06T09:15:21;44.70;;;23.05;;
31760;SDS011;18335;51.486;7.562;2024-03-06T09:17:50;43.15;;;22.67;;
31760;SDS011;18335;51.486;7.562;2024-03-06T09:20:16;42.97;;;22.38;;
31760;SDS011;18335;51.486;7.562;2024-03-06T09:22:43;47.95;;;24.45;;
31760;SDS011;18335;51.486;7.562;2024-03-06T09:25:10;45.22;;;25.60;;
31760;SDS011;18335;51.486;7.562;2024-03-06T09:27:38;46.75;;;25.70;;
31760;SDS011;18335;51.486;7.562;2024-03-06T09:30:06;44.75;;;23.65;;
31760;SDS011;18335;51.486;7.562;2024-03-06T09:32:35;51.13;;;25.88;;
31760;SDS011;18335;51.486;7.562;2024-03-06T09:35:03;41.58;;;23.38;;
31760;SDS011;18335;51.486;7.562;2024-03-06T09:37:31;44.30;;;26.10;;
31760;SDS011;18335;51.486;7.562;2024-03-06T09:39:57;43.28;;;23.48;;
31760;SDS011;18335;51.486;7.562;2024-03-06T09:42:24;42.13;;;21.65;;
31760;SDS011;18335;51.486;7.562;2024-03-06T09:44:51;44.80;;;23.50;;
31760;SDS011;18335;51.486;7.562;2024-03-06T09:47:19;41.30;;;25.30;;
31760;SDS011;18335;51.486;7.562;2024-03-06T09:49:52;41.13;;;25.45;;
31760;SDS011;18335;51.486;7.562;2024-03-06T09:52:19;40.50;;;21.35;;
31760;SDS011;18335;51.486;7.562;2024-03-06T09:54:47;41.60;;;24.40;;
31760;SDS011;18335;51.486;7.562;2024-03-06T09:57:14;44.17;;;24.08;;
31760;SDS011;18335;51.486;7.562;2024-03-06T09:59:41;43.40;;;25.75;;
31760;SDS011;18335;51.486;7.562;2024-03-06T10:02:13;47.75;;;26.27;;
31760;SDS011;18335;51.486;7.562;2024-03-06T10:04:53;46.58;;;26.05;;
31760;SDS011;18335;51.486;7.562;2024-03-06T10:07:20;53.97;;;29.38;;
31760;SDS011;18335;51.486;7.562;2024-03-06T10:09:47;47.95;;;26.73;;
31760;SDS011;18335;51.486;7.562;2024-03-06T10:12:16;42.03;;;26.45;;
31760;SDS011;18335;51.486;7.562;2024-03-06T10:14:48;50.80;;;26.48;;
31760;SDS011;18335;51.486;7.562;2024-03-06T10:17:18;45.10;;;26.77;;
31760;SDS011;18335;51.486;7.562;2024-03-06T10:19:48;46.80;;;24.50;;
31760;SDS011;18335;51.486;7.562;2024-03-06T10:22:18;42.55;;;24.83;;
31760;SDS011;18335;51.486;7.562;2024-03-06T10:24:45;39.40;;;24.92;;
31760;SDS011;18335;51.486;7.562;2024-03-06T10:27:14;41.25;;;22.58;;
31760;SDS011;18335;51.486;7.562;2024-03-06T10:29:41;42.72;;;22.10;;
31760;SDS011;18335;51.486;7.562;2024-03-06T10:32:08;39.78;;;23.05;;
31760;SDS011;18335;51.486;7.562;2024-03-06T10:34:36;39.15;;;22.77;;
31760;SDS011;18335;51.486;7.562;2024-03-06T10:37:03;44.67;;;24.20;;
31760;SDS011;18335;51.486;7.562;2024-03-06T10:39:32;41.28;;;24.42;;
31760;SDS011;18335;51.486;7.562;2024-03-06T10:42:02;41.42;;;25.75;;
31760;SDS011;18335;51.486;7.562;2024-03-06T10:44:31;45.25;;;27.02;;
31760;SDS011;18335;51.486;7.562;2024-03-06T10:47:02;41.63;;;24.77;;
31760;SDS011;18335;51.486;7.562;2024-03-06T10:49:30;43.35;;;25.08;;
31760;SDS011;18335;51.486;7.562;2024-03-06T10:51:59;43.88;;;26.70;;
31760;SDS011;18335;51.486;7.562;2024-03-06T10:54:27;44.60;;;26.58;;
31760;SDS011;18335;51.486;7.562;2024-03-06T10:56:56;30.10;;;19.52;;
31760;SDS011;18335;51.486;7.562;2024-03-06T10:59:24;32.65;;;18.35;;
31760;SDS011;18335;51.486;7.562;2024-03-06T11:01:53;27.40;;;15.50;;
31760;SDS011;18335;51.486;7.562;2024-03-06T11:04:21;22.15;;;13.93;;
31760;SDS011;18335;51.486;7.562;2024-03-06T11:06:50;29.90;;;18.65;;
31760;SDS011;18335;51.486;7.562;2024-03-06T11:09:16;29.67;;;19.83;;
31760;SDS011;18335;51.486;7.562;2024-03-06T11:11:47;37.35;;;22.13;;
31760;SDS011;18335;51.486;7.562;2024-03-06T11:14:15;33.45;;;21.83;;
31760;SDS011;18335;51.486;7.562;2024-03-06T11:19:28;34.38;;;21.50;;
31760;SDS011;18335;51.486;7.562;2024-03-06T11:21:55;36.63;;;22.67;;
31760;SDS011;18335;51.486;7.562;2024-03-06T11:24:23;36.70;;;24.23;;
31760;SDS011;18335;51.486;7.562;2024-03-06T11:26:50;36.20;;;24.70;;
31760;SDS011;18335;51.486;7.562;2024-03-06T11:29:26;34.58;;;22.40;;
31760;SDS011;18335;51.486;7.562;2024-03-06T11:32:01;33.92;;;20.40;;
31760;SDS011;18335;51.486;7.562;2024-03-06T11:34:32;24.05;;;16.10;;
31760;SDS011;18335;51.486;7.562;2024-03-06T11:36:58;24.83;;;15.75;;
31760;SDS011;18335;51.486;7.562;2024-03-06T11:39:29;27.80;;;18.38;;
31760;SDS011;18335;51.486;7.562;2024-03-06T11:41:56;30.35;;;19.92;;
31760;SDS011;18335;51.486;7.562;2024-03-06T11:44:26;28.45;;;19.02;;
31760;SDS011;18335;51.486;7.562;2024-03-06T11:46:57;33.67;;;20.38;;
31760;SDS011;18335;51.486;7.562;2024-03-06T11:49:25;35.95;;;24.38;;
31760;SDS011;18335;51.486;7.562;2024-03-06T11:51:54;30.27;;;20.45;;
31760;SDS011;18335;51.486;7.562;2024-03-06T11:54:22;33.65;;;21.35;;
31760;SDS011;18335;51.486;7.562;2024-03-06T11:56:52;31.58;;;20.60;;
31760;SDS011;18335;51.486;7.562;2024-03-06T11:59:21;39.40;;;25.48;;
31760;SDS011;18335;51.486;7.562;2024-03-06T12:01:50;36.10;;;22.55;;
31760;SDS011;18335;51.486;7.562;2024-03-06T12:04:18;32.25;;;22.50;;
31760;SDS011;18335;51.486;7.562;2024-03-06T12:06:45;34.17;;;22.25;;
31760;SDS011;18335;51.486;7.562;2024-03-06T12:09:12;37.92;;;24.25;;
31760;SDS011;18335;51.486;7.562;2024-03-06T12:11:39;37.60;;;23.15;;
31760;SDS011;18335;51.486;7.562;2024-03-06T12:14:06;35.28;;;24.10;;
31760;SDS011;18335;51.486;7.562;2024-03-06T12:16:34;38.55;;;24.52;;
31760;SDS011;18335;51.486;7.562;2024-03-06T12:19:03;33.25;;;23.10;;
31760;SDS011;18335;51.486;7.562;2024-03-06T12:21:30;34.53;;;23.98;;
31760;SDS011;18335;51.486;7.562;2024-03-06T12:24:04;31.73;;;23.52;;
31760;SDS011;18335;51.486;7.562;2024-03-06T12:26:31;41.92;;;26.17;;
31760;SDS011;18335;51.486;7.562;2024-03-06T12:29:04;39.60;;;25.70;;
31760;SDS011;18335;51.486;7.562;2024-03-06T12:31:32;36.92;;;25.65;;
31760;SDS011;18335;51.486;7.562;2024-03-06T12:34:00;39.70;;;25.48;;
31760;SDS011;18335;51.486;7.562;2024-03-06T12:36:29;33.33;;;24.40;;
31760;SDS011;18335;51.486;7.562;2024-03-06T12:38:58;33.78;;;23.42;;
31760;SDS011;18335;51.486;7.562;2024-03-06T12:41:26;34.65;;;24.23;;
31760;SDS011;18335;51.486;7.562;2024-03-06T12:43:53;33.63;;;22.77;;
31760;SDS011;18335;51.486;7.562;2024-03-06T12:46:21;33.67;;;22.50;;
31760;SDS011;18335;51.486;7.562;2024-03-06T12:48:48;30.80;;;22.13;;
31760;SDS011;18335;51.486;7.562;2024-03-06T12:51:14;33.17;;;23.75;;
31760;SDS011;18335;51.486;7.562;2024-03-06T12:53:42;34.67;;;24.30;;
31760;SDS011;18335;51.486;7.562;2024-03-06T12:56:09;36.83;;;24.25;;
31760;SDS011;18335;51.486;7.562;2024-03-06T12:58:36;37.70;;;26.42;;
31760;SDS011;18335;51.486;7.562;2024-03-06T13:01:03;37.80;;;25.50;;
31760;SDS011;18335;51.486;7.562;2024-03-06T13:03:30;37.60;;;27.15;;
31760;SDS011;18335;51.486;7.562;2024-03-06T13:05:57;33.70;;;25.15;;
31760;SDS011;18335;51.486;7.562;2024-03-06T13:08:24;32.85;;;23.05;;
31760;SDS011;18335;51.486;7.562;2024-03-06T13:10:52;30.35;;;20.95;;
31760;SDS011;18335;51.486;7.562;2024-03-06T13:13:19;30.02;;;20.98;;
31760;SDS011;18335;51.486;7.562;2024-03-06T13:15:46;33.47;;;22.23;;
31760;SDS011;18335;51.486;7.562;2024-03-06T13:18:13;36.20;;;25.15;;
31760;SDS011;18335;51.486;7.562;2024-03-06T13:20:40;39.78;;;26.20;;
31760;SDS011;18335;51.486;7.562;2024-03-06T13:23:07;37.35;;;26.65;;
31760;SDS011;18335;51.486;7.562;2024-03-06T13:25:34;37.05;;;25.80;;
31760;SDS011;18335;51.486;7.562;2024-03-06T13:28:03;39.85;;;27.35;;
31760;SDS011;18335;51.486;7.562;2024-03-06T13:30:30;45.85;;;27.33;;
31760;SDS011;18335;51.486;7.562;2024-03-06T13:32:57;39.10;;;28.23;;
31760;SDS011;18335;51.486;7.562;2024-03-06T13:35:24;42.67;;;29.08;;
31760;SDS011;18335;51.486;7.562;2024-03-06T13:37:51;39.35;;;26.52;;
31760;SDS011;18335;51.486;7.562;2024-03-06T13:40:19;38.40;;;26.15;;
31760;SDS011;18335;51.486;7.562;2024-03-06T13:42:45;36.25;;;26.08;;
31760;SDS011;18335;51.486;7.562;2024-03-06T13:45:14;38.22;;;25.20;;
31760;SDS011;18335;51.486;7.562;2024-03-06T13:47:41;38.22;;;25.77;;
31760;SDS011;18335;51.486;7.562;2024-03-06T13:50:09;38.53;;;27.63;;
31760;SDS011;18335;51.486;7.562;2024-03-06T13:52:38;40.72;;;27.50;;
31760;SDS011;18335;51.486;7.562;2024-03-06T13:55:06;46.42;;;25.90;;
31760;SDS011;18335;51.486;7.562;2024-03-06T13:57:33;39.97;;;26.77;;
31760;SDS011;18335;51.486;7.562;2024-03-06T14:00:01;42.63;;;26.88;;
31760;SDS011;18335;51.486;7.562;2024-03-06T14:02:38;39.35;;;26.55;;
31760;SDS011;18335;51.486;7.562;2024-03-06T14:05:05;37.50;;;25.63;;
31760;SDS011;18335;51.486;7.562;2024-03-06T14:07:33;39.65;;;25.67;;
31760;SDS011;18335;51.486;7.562;2024-03-06T14:09:59;36.50;;;25.02;;
31760;SDS011;18335;51.486;7.562;2024-03-06T14:12:26;40.33;;;27.10;;
31760;SDS011;18335;51.486;7.562;2024-03-06T14:14:53;35.47;;;23.92;;
31760;SDS011;18335;51.486;7.562;2024-03-06T14:17:19;32.75;;;24.00;;
31760;SDS011;18335;51.486;7.562;2024-03-06T14:19:48;34.83;;;23.85;;
31760;SDS011;18335;51.486;7.562;2024-03-06T14:22:15;36.20;;;25.20;;
31760;SDS011;18335;51.486;7.562;2024-03-06T14:24:42;33.72;;;24.05;;